Time;durP1;ratioP1;P1;durP2;ratioP2;P2;SDS_P1;SDS_P2;PMS_P1;PMS_P2;Temp;Humidity;BMP_temperature;BMP_pressure;BME280_temperature;BME280_humidity;BME280_pressure;Samples;Min_cycle;Max_cycle;Signal;HPM_P1;HPM_P2
2020/12/18 00:00:24;;;;;;;2.22;1.35;;;15.90;70.80;;;;;;10497204;28;20036;-62
2020/12/18 00:05:25;;;;;;;3.13;1.52;;;15.90;70.70;;;;;;10497847;28;20040;-62
2020/12/18 00:10:27;;;;;;;2.20;1.38;;;15.90;70.80;;;;;;10497851;28;20033;-61
2020/12/18 00:15:27;;;;;;;2.85;1.77;;;15.90;70.80;;;;;;10496329;28;20420;-62
2020/12/18 00:20:28;;;;;;;3.00;1.55;;;15.90;70.70;;;;;;10497705;28;20104;-62
2020/12/18 00:25:29;;;;;;;2.08;1.20;;;15.90;70.80;;;;;;10497424;28;20143;-62
2020/12/18 00:30:29;;;;;;;3.38;1.70;;;15.90;70.80;;;;;;10497341;28;20111;-61
2020/12/18 00:35:30;;;;;;;2.35;1.58;;;15.90;70.80;;;;;;10497295;28;20154;-62
2020/12/18 00:40:31;;;;;;;2.67;1.60;;;15.80;70.80;;;;;;10497104;28;20055;-61
2020/12/18 00:45:31;;;;;;;3.40;1.73;;;15.80;70.70;;;;;;10497083;28;20341;-61
2020/12/18 00:50:33;;;;;;;2.13;1.20;;;15.80;70.70;;;;;;10488057;28;20086;-62
2020/12/18 00:55:34;;;;;;;3.08;1.50;;;15.80;70.70;;;;;;10496801;28;20028;-62
2020/12/18 01:00:35;;;;;;;2.00;1.45;;;15.80;70.70;;;;;;10490436;28;20403;-62
2020/12/18 01:05:36;;;;;;;1.77;1.27;;;15.80;70.70;;;;;;10496498;28;20123;-62
2020/12/18 01:10:36;;;;;;;3.78;1.70;;;15.80;70.70;;;;;;10494536;28;20135;-62
2020/12/18 01:15:37;;;;;;;2.45;1.48;;;15.80;70.70;;;;;;10496175;28;20035;-61
2020/12/18 01:20:38;;;;;;;2.85;1.50;;;15.80;70.70;;;;;;10496383;28;20103;-62
2020/12/18 01:25:38;;;;;;;2.70;1.70;;;15.80;70.70;;;;;;10511346;28;20103;-62
2020/12/18 01:30:39;;;;;;;1.73;1.33;;;15.80;70.70;;;;;;10482543;28;20107;-61
2020/12/18 01:35:40;;;;;;;3.50;1.63;;;15.70;70.60;;;;;;10496046;28;20021;-61
2020/12/18 01:40:40;;;;;;;3.25;1.83;;;15.70;70.60;;;;;;10495851;28;20056;-61
2020/12/18 01:45:41;;;;;;;2.38;1.50;;;15.70;70.60;;;;;;10495627;28;20025;-62
2020/12/18 01:50:42;;;;;;;3.35;1.73;;;15.70;70.50;;;;;;10495482;28;20069;-61
2020/12/18 01:55:44;;;;;;;1.90;1.30;;;15.70;70.60;;;;;;10494371;28;20025;-62
2020/12/18 02:00:45;;;;;;;2.75;1.40;;;15.70;70.60;;;;;;10495358;28;20032;-62
2020/12/18 02:05:46;;;;;;;2.65;1.70;;;15.70;70.50;;;;;;10495538;28;20060;-61
2020/12/18 02:10:48;;;;;;;3.20;1.58;;;15.70;70.50;;;;;;10502593;28;20182;-61
2020/12/18 02:15:51;;;;;;;4.45;1.30;;;15.60;70.50;;;;;;10502585;28;20491;-61
2020/12/18 02:20:54;;;;;;;2.28;1.27;;;15.60;70.50;;;;;;10501164;28;20037;-62
2020/12/18 02:26:05;;;;;;;3.20;1.77;;;15.60;70.50;;;;;;10500765;28;20060;-62
2020/12/18 02:31:08;;;;;;;1.98;1.10;;;15.60;70.50;;;;;;10501769;28;20024;-61
2020/12/18 02:36:09;;;;;;;1.98;1.33;;;15.60;70.50;;;;;;10500686;28;20108;-62
2020/12/18 02:41:10;;;;;;;2.42;1.73;;;15.60;70.50;;;;;;10500408;28;20020;-61
2020/12/18 02:46:10;;;;;;;1.70;1.20;;;15.60;70.50;;;;;;10501519;28;20060;-62
2020/12/18 02:51:11;;;;;;;2.40;1.73;;;15.60;70.50;;;;;;10500946;28;20119;-61
2020/12/18 02:56:12;;;;;;;1.92;1.05;;;15.60;70.50;;;;;;10501278;28;20032;-61
2020/12/18 03:01:13;;;;;;;2.30;1.27;;;15.60;70.50;;;;;;10500629;28;20025;-61
2020/12/18 03:06:14;;;;;;;2.05;1.55;;;15.60;70.50;;;;;;10500156;28;20127;-62
2020/12/18 03:11:15;;;;;;;3.80;1.45;;;15.50;70.50;;;;;;10516185;28;20037;-61
2020/12/18 03:16:16;;;;;;;2.55;1.70;;;15.50;70.40;;;;;;10487262;28;20017;-61
2020/12/18 03:21:16;;;;;;;2.47;1.25;;;15.50;70.50;;;;;;10499183;28;20052;-61
2020/12/18 03:26:17;;;;;;;2.03;1.40;;;15.50;70.50;;;;;;10499998;28;20373;-61
2020/12/18 03:31:19;;;;;;;1.90;1.40;;;15.50;70.40;;;;;;10499143;28;20119;-62
2020/12/18 03:36:20;;;;;;;1.60;1.05;;;15.50;70.40;;;;;;10497634;28;20406;-62
2020/12/18 03:41:20;;;;;;;2.75;1.58;;;15.50;70.40;;;;;;10498751;28;20086;-61
2020/12/18 03:46:21;;;;;;;2.10;1.60;;;15.50;70.50;;;;;;10498550;28;20090;-62
2020/12/18 03:51:22;;;;;;;2.53;1.33;;;15.50;70.80;;;;;;10498041;28;20432;-61
2020/12/18 03:56:22;;;;;;;2.50;1.45;;;15.40;70.40;;;;;;10493446;28;20459;-62
2020/12/18 04:01:25;;;;;;;2.45;1.40;;;15.40;70.40;;;;;;10498098;28;20028;-62
2020/12/18 04:06:25;;;;;;;1.88;1.20;;;15.40;70.30;;;;;;10496395;28;20047;-61
2020/12/18 04:11:27;;;;;;;2.05;1.25;;;15.40;70.40;;;;;;10497521;28;20025;-61
2020/12/18 04:16:28;;;;;;;2.03;1.20;;;15.40;70.40;;;;;;10497340;28;20035;-61
2020/12/18 04:21:29;;;;;;;1.85;1.10;;;15.40;70.40;;;;;;10497144;28;20115;-61
2020/12/18 04:26:29;;;;;;;1.65;1.20;;;15.40;70.40;;;;;;10496434;28;20543;-61
2020/12/18 04:31:30;;;;;;;2.40;1.30;;;15.40;70.40;;;;;;10494950;28;20025;-61
2020/12/18 04:36:31;;;;;;;2.55;1.35;;;15.40;70.40;;;;;;10496640;28;20099;-61
2020/12/18 04:41:33;;;;;;;2.80;1.08;;;15.40;70.40;;;;;;10493601;28;20055;-61
2020/12/18 04:46:36;;;;;;;3.05;1.33;;;15.30;70.30;;;;;;10498021;28;20100;-61
2020/12/18 04:51:42;;;;;;;2.67;1.20;;;15.30;70.40;;;;;;10496518;28;20550;-61
2020/12/18 04:56:49;;;;;;;2.58;1.73;;;15.30;70.30;;;;;;10484824;28;20116;-61
2020/12/18 05:01:57;;;;;;;1.63;1.25;;;15.30;70.40;;;;;;10486223;28;20029;-61
2020/12/18 05:06:57;;;;;;;2.05;1.35;;;15.30;70.40;;;;;;10488527;28;20048;-61
2020/12/18 05:12:08;;;;;;;1.88;1.10;;;15.30;70.30;;;;;;10489871;28;20029;-61
2020/12/18 05:17:10;;;;;;;2.97;1.40;;;15.30;70.40;;;;;;10492958;28;20562;-62
2020/12/18 05:22:12;;;;;;;1.48;1.00;;;15.30;70.40;;;;;;10495268;28;20461;-61
2020/12/18 05:27:13;;;;;;;1.17;0.90;;;15.30;70.40;;;;;;10494622;28;20035;-61
2020/12/18 05:32:15;;;;;;;1.92;1.27;;;15.20;70.30;;;;;;10493554;28;20475;-61
2020/12/18 05:37:16;;;;;;;3.10;1.42;;;15.20;70.30;;;;;;10481501;28;20031;-62
2020/12/18 05:42:20;;;;;;;2.05;1.00;;;15.20;70.30;;;;;;10476363;28;20021;-61
2020/12/18 05:47:21;;;;;;;1.70;1.05;;;15.20;70.30;;;;;;10470822;28;20358;-61
2020/12/18 05:52:22;;;;;;;3.33;1.00;;;15.20;70.30;;;;;;10495944;28;20051;-62
2020/12/18 05:57:23;;;;;;;1.92;0.90;;;15.20;70.40;;;;;;10506834;28;20115;-61
2020/12/18 06:02:28;;;;;;;1.45;1.10;;;15.20;70.30;;;;;;10501127;28;20074;-62
2020/12/18 06:07:29;;;;;;;1.17;0.90;;;15.20;70.30;;;;;;10500608;28;20114;-61
2020/12/18 06:12:30;;;;;;;1.70;1.25;;;15.20;70.90;;;;;;10493013;28;20033;-62
2020/12/18 06:17:35;;;;;;;2.80;1.25;;;15.10;70.40;;;;;;10497323;28;20043;-64
2020/12/18 06:22:36;;;;;;;4.13;1.48;;;15.20;71.60;;;;;;10489682;28;20039;-63
2020/12/18 06:27:36;;;;;;;2.50;1.33;;;15.30;71.60;;;;;;10500249;28;20108;-65
2020/12/18 06:32:44;;;;;;;4.55;1.10;;;15.60;70.90;;;;;;10498586;28;20095;-63
2020/12/18 06:37:45;;;;;;;4.35;1.48;;;16.10;69.30;;;;;;10500184;28;20380;-64
2020/12/18 06:42:46;;;;;;;3.58;1.02;;;16.70;67.40;;;;;;10499816;28;20024;-60
2020/12/18 06:47:47;;;;;;;7.22;1.67;;;17.10;66.50;;;;;;10494555;28;20028;-62
2020/12/18 06:52:52;;;;;;;7.05;1.30;;;17.20;65.90;;;;;;10481443;28;20043;-61
2020/12/18 06:58:07;;;;;;;9.48;1.58;;;17.40;65.60;;;;;;10500519;28;20052;-61
2020/12/18 07:03:09;;;;;;;6.53;1.27;;;17.50;65.20;;;;;;10499754;28;20032;-62
2020/12/18 07:08:15;;;;;;;17.55;2.00;;;17.70;65.00;;;;;;10481595;28;20400;-60
2020/12/18 07:13:18;;;;;;;15.50;3.08;;;17.80;65.10;;;;;;10505086;28;20090;-61
2020/12/18 07:18:25;;;;;;;10.82;2.10;;;18.10;64.80;;;;;;10497191;28;20027;-60
2020/12/18 07:23:29;;;;;;;11.70;1.65;;;18.30;64.30;;;;;;10464344;28;20139;-59
2020/12/18 07:28:31;;;;;;;8.43;1.48;;;18.40;64.30;;;;;;10464643;28;20150;-59
2020/12/18 07:33:32;;;;;;;7.88;1.38;;;18.50;64.00;;;;;;10472556;28;20107;-61
2020/12/18 07:38:33;;;;;;;10.05;1.45;;;18.60;63.90;;;;;;10497387;28;20033;-61
2020/12/18 07:43:36;;;;;;;9.18;2.00;;;18.70;64.00;;;;;;10486808;28;20040;-63
2020/12/18 07:48:40;;;;;;;5.00;1.10;;;18.80;63.70;;;;;;10476520;28;20063;-58
2020/12/18 07:53:43;;;;;;;15.40;1.55;;;18.90;63.80;;;;;;10467541;28;20043;-57
2020/12/18 07:59:08;;;;;;;11.52;1.30;;;19.00;63.60;;;;;;10491714;28;20051;-57
2020/12/18 08:04:11;;;;;;;14.13;1.60;;;19.20;62.70;;;;;;10485439;28;20043;-58
2020/12/18 08:09:19;;;;;;;7.43;1.40;;;19.30;62.30;;;;;;10495220;28;20098;-58
2020/12/18 08:14:19;;;;;;;7.72;2.15;;;19.40;62.10;;;;;;10488740;28;20054;-57
2020/12/18 08:19:20;;;;;;;12.77;1.40;;;19.40;62.00;;;;;;10483530;28;20025;-57
2020/12/18 08:24:27;;;;;;;5.53;1.27;;;19.40;62.20;;;;;;10476289;28;20461;-57
2020/12/18 08:29:31;;;;;;;10.82;1.45;;;19.40;62.30;;;;;;10499329;28;20028;-59
2020/12/18 08:34:34;;;;;;;8.80;1.75;;;19.40;62.30;;;;;;10481187;28;20108;-61
2020/12/18 08:39:35;;;;;;;7.13;1.13;;;19.50;62.00;;;;;;10484882;28;20025;-61
2020/12/18 08:44:39;;;;;;;7.68;1.70;;;19.50;61.70;;;;;;10497444;28;20420;-61
2020/12/18 08:49:40;;;;;;;22.83;4.22;;;19.50;61.40;;;;;;10485987;28;20064;-60
2020/12/18 08:54:42;;;;;;;18.83;3.25;;;19.70;61.10;;;;;;10496150;28;20059;-61
2020/12/18 09:00:07;;;;;;;11.02;2.78;;;19.70;61.40;;;;;;10470371;28;20028;-61
2020/12/18 09:05:12;;;;;;;14.50;3.08;;;19.80;61.50;;;;;;10495032;28;20456;-62
2020/12/18 09:10:12;;;;;;;27.25;4.05;;;19.90;61.20;;;;;;10496370;28;20115;-61
2020/12/18 09:15:31;;;;;;;19.65;3.22;;;19.90;61.50;;;;;;10495038;28;20020;-61
2020/12/18 09:20:38;;;;;;;14.53;3.47;;;20.00;61.60;;;;;;10499080;28;20095;-64
2020/12/18 09:25:50;;;;;;;19.67;3.67;;;20.00;61.60;;;;;;10501820;28;20469;-62
2020/12/18 09:30:57;;;;;;;19.25;3.30;;;20.00;61.50;;;;;;10474197;28;20041;-61
2020/12/18 09:36:10;;;;;;;17.48;3.67;;;19.90;61.70;;;;;;10502462;28;20033;-61
2020/12/18 09:41:18;;;;;;;13.20;2.72;;;19.70;61.50;;;;;;10498180;28;20032;-61
2020/12/18 09:46:22;;;;;;;20.65;3.20;;;19.80;61.20;;;;;;10500679;28;20074;-63
2020/12/18 09:51:22;;;;;;;13.07;2.75;;;19.80;61.30;;;;;;10493528;28;20633;-59
2020/12/18 09:56:23;;;;;;;12.63;2.92;;;19.80;61.40;;;;;;10488597;28;20021;-65
2020/12/18 10:01:25;;;;;;;7.70;2.90;;;19.90;61.50;;;;;;10503204;28;20056;-60
2020/12/18 10:06:27;;;;;;;15.00;2.85;;;19.90;61.50;;;;;;10500867;28;20067;-63
2020/12/18 10:11:29;;;;;;;13.90;2.70;;;19.80;61.80;;;;;;10500132;28;20021;-62
2020/12/18 10:16:29;;;;;;;13.02;2.88;;;19.80;63.10;;;;;;10486331;28;20874;-61
2020/12/18 10:21:33;;;;;;;7.22;2.17;;;19.70;62.70;;;;;;10484522;28;20029;-59
2020/12/18 10:26:34;;;;;;;9.23;2.08;;;19.60;62.80;;;;;;10499984;28;20060;-61
2020/12/18 10:31:34;;;;;;;12.55;2.78;;;19.50;63.20;;;;;;10500408;28;20035;-61
2020/12/18 10:36:35;;;;;;;9.20;2.17;;;19.40;63.00;;;;;;10500445;28;20111;-60
2020/12/18 10:41:38;;;;;;;13.73;2.58;;;19.40;62.70;;;;;;10492567;28;20103;-59
2020/12/18 10:46:40;;;;;;;10.88;2.10;;;19.50;62.60;;;;;;10500363;28;20036;-60
2020/12/18 10:51:42;;;;;;;6.25;1.92;;;19.50;62.50;;;;;;10475488;28;20021;-59
2020/12/18 10:56:45;;;;;;;5.03;1.75;;;19.50;62.60;;;;;;10501370;28;20020;-59
2020/12/18 11:01:45;;;;;;;6.75;1.98;;;19.50;63.00;;;;;;10497251;28;20035;-59
2020/12/18 11:06:47;;;;;;;13.88;2.70;;;19.60;62.70;;;;;;10480284;28;20051;-59
2020/12/18 11:11:53;;;;;;;14.75;2.03;;;19.50;63.10;;;;;;10476564;28;20431;-58
2020/12/18 11:16:55;;;;;;;11.13;2.50;;;19.30;63.80;;;;;;10490813;28;20020;-58
2020/12/18 11:21:56;;;;;;;12.18;2.70;;;19.20;64.10;;;;;;10494987;28;20577;-60
2020/12/18 11:26:57;;;;;;;16.83;2.90;;;19.10;65.10;;;;;;10496032;28;20127;-62
2020/12/18 11:31:57;;;;;;;10.93;2.38;;;18.90;64.70;;;;;;10496998;28;20021;-60
2020/12/18 11:36:58;;;;;;;8.25;2.33;;;18.90;65.30;;;;;;10498394;28;20024;-59
2020/12/18 11:41:59;;;;;;;13.52;2.92;;;18.90;65.30;;;;;;10496804;28;20066;-60
2020/12/18 11:47:00;;;;;;;8.57;2.30;;;19.00;65.20;;;;;;10498544;28;20040;-61
2020/12/18 11:52:04;;;;;;;11.85;1.92;;;19.00;65.60;;;;;;10496351;28;20036;-60
2020/12/18 11:57:05;;;;;;;13.40;1.75;;;19.00;65.70;;;;;;10492699;28;20025;-58
2020/12/18 12:02:08;;;;;;;18.85;2.67;;;18.90;66.10;;;;;;10466930;28;20108;-61
2020/12/18 12:07:08;;;;;;;15.52;3.42;;;18.90;65.90;;;;;;10499832;28;20048;-65
2020/12/18 12:12:12;;;;;;;25.38;4.15;;;18.80;66.40;;;;;;10477163;28;20380;-61
2020/12/18 12:17:13;;;;;;;23.42;3.60;;;18.90;66.50;;;;;;10489263;28;20033;-60
2020/12/18 12:22:15;;;;;;;18.25;4.57;;;18.90;67.00;;;;;;10497293;28;20488;-62
2020/12/18 12:27:20;;;;;;;22.17;3.85;;;18.90;67.10;;;;;;10496607;28;20078;-62
2020/12/18 12:32:22;;;;;;;21.67;4.20;;;18.80;67.50;;;;;;10496201;28;20037;-62
2020/12/18 12:37:22;;;;;;;11.68;3.40;;;18.80;67.30;;;;;;10483381;28;20036;-59
2020/12/18 12:42:23;;;;;;;22.77;3.50;;;18.80;67.00;;;;;;10499349;28;20024;-60
2020/12/18 12:47:24;;;;;;;17.85;3.13;;;18.70;66.90;;;;;;10494581;28;20024;-61
2020/12/18 12:52:24;;;;;;;15.13;2.88;;;18.70;66.30;;;;;;10496981;28;20116;-60
2020/12/18 12:57:25;;;;;;;14.18;3.00;;;18.80;66.20;;;;;;10495839;28;20029;-60
2020/12/18 13:02:26;;;;;;;10.35;3.58;;;18.80;65.90;;;;;;10495673;28;20021;-60
2020/12/18 13:07:26;;;;;;;11.65;2.55;;;18.90;65.50;;;;;;10495297;28;20040;-61
2020/12/18 13:12:27;;;;;;;10.52;2.35;;;18.90;65.40;;;;;;10495854;28;20108;-60
2020/12/18 13:17:28;;;;;;;13.25;2.30;;;18.90;65.20;;;;;;10496032;28;20059;-61
2020/12/18 13:22:28;;;;;;;15.85;2.53;;;18.90;65.00;;;;;;10496032;28;20508;-59
2020/12/18 13:27:29;;;;;;;8.18;1.50;;;19.00;64.90;;;;;;10496246;28;20039;-60
2020/12/18 13:32:30;;;;;;;3.97;1.65;;;19.20;64.80;;;;;;10495880;28;20043;-59
2020/12/18 13:37:31;;;;;;;6.22;1.98;;;19.10;64.20;;;;;;10495649;28;20016;-59
2020/12/18 13:42:35;;;;;;;10.13;2.05;;;19.20;64.30;;;;;;10493174;28;20128;-59
2020/12/18 13:47:41;;;;;;;9.60;2.67;;;19.10;64.50;;;;;;10493950;28;20016;-59
2020/12/18 13:52:43;;;;;;;8.18;1.77;;;19.20;64.50;;;;;;10495219;28;20020;-60
2020/12/18 13:57:44;;;;;;;11.35;2.03;;;19.10;65.00;;;;;;10495602;28;20016;-60
2020/12/18 14:02:44;;;;;;;6.82;1.88;;;19.20;65.30;;;;;;10487493;28;20054;-60
2020/12/18 14:07:45;;;;;;;9.60;1.60;;;19.10;65.70;;;;;;10502398;28;20504;-59
2020/12/18 14:12:46;;;;;;;7.22;1.73;;;19.10;65.30;;;;;;10499025;28;20028;-60
2020/12/18 14:17:47;;;;;;;7.45;1.55;;;19.00;65.80;;;;;;10502629;28;20020;-60
2020/12/18 14:22:48;;;;;;;8.65;1.90;;;19.10;65.60;;;;;;10483621;28;20119;-60
2020/12/18 14:27:49;;;;;;;8.48;1.55;;;19.00;65.50;;;;;;10500984;28;20476;-60
2020/12/18 14:32:49;;;;;;;9.48;1.77;;;19.10;65.60;;;;;;10500866;28;20125;-59
2020/12/18 14:37:52;;;;;;;5.80;1.20;;;19.20;65.40;;;;;;10512792;28;20748;-58
2020/12/18 14:42:53;;;;;;;9.27;1.73;;;19.10;66.20;;;;;;10489938;28;20035;-60
2020/12/18 14:47:54;;;;;;;11.38;2.50;;;19.20;65.40;;;;;;10503394;28;20028;-60
2020/12/18 14:52:55;;;;;;;7.90;2.33;;;19.10;65.30;;;;;;10500729;28;20033;-59
2020/12/18 14:57:56;;;;;;;7.65;1.65;;;19.10;65.30;;;;;;10517079;28;20111;-59
2020/12/18 15:02:56;;;;;;;7.78;1.70;;;19.20;65.30;;;;;;10500110;28;20032;-62
2020/12/18 15:07:58;;;;;;;12.25;1.63;;;19.20;65.60;;;;;;10483890;28;20123;-61
2020/12/18 15:12:59;;;;;;;10.40;2.05;;;19.10;65.80;;;;;;10465836;28;20386;-61
2020/12/18 15:18:00;;;;;;;8.95;2.10;;;19.10;65.60;;;;;;10483129;28;20066;-61
2020/12/18 15:23:01;;;;;;;8.40;1.77;;;19.10;65.70;;;;;;10494803;28;20366;-61
2020/12/18 15:28:02;;;;;;;7.95;1.70;;;19.00;66.00;;;;;;10497829;28;20234;-61
2020/12/18 15:33:03;;;;;;;6.43;1.60;;;19.00;65.80;;;;;;10498448;28;20116;-60
2020/12/18 15:38:04;;;;;;;12.35;1.80;;;19.00;65.80;;;;;;10497857;28;20071;-61
2020/12/18 15:43:04;;;;;;;9.70;2.35;;;19.10;66.00;;;;;;10499166;28;20029;-61
2020/12/18 15:48:05;;;;;;;18.45;3.00;;;19.00;66.30;;;;;;10498351;28;20024;-60
2020/12/18 15:53:06;;;;;;;9.90;2.10;;;19.10;66.30;;;;;;10490936;28;20119;-60
2020/12/18 15:58:07;;;;;;;9.15;1.80;;;19.00;66.40;;;;;;10484399;28;20361;-60
2020/12/18 16:03:08;;;;;;;9.02;2.38;;;18.90;66.50;;;;;;10486237;28;20032;-61
2020/12/18 16:08:09;;;;;;;7.43;1.70;;;19.10;66.10;;;;;;10474467;28;20052;-60
2020/12/18 16:13:10;;;;;;;8.32;1.90;;;19.10;66.00;;;;;;10499044;28;20070;-60
2020/12/18 16:18:10;;;;;;;10.98;1.95;;;19.20;66.50;;;;;;10498080;28;20038;-61
2020/12/18 16:23:12;;;;;;;10.48;2.13;;;19.20;66.10;;;;;;10495883;28;20106;-60
2020/12/18 16:28:12;;;;;;;15.30;2.53;;;19.20;66.20;;;;;;10489494;28;20799;-61
2020/12/18 16:33:14;;;;;;;8.27;1.70;;;19.10;66.30;;;;;;10496064;28;20052;-65
2020/12/18 16:38:15;;;;;;;10.13;2.17;;;19.10;66.40;;;;;;10494146;28;20036;-65
2020/12/18 16:43:22;;;;;;;13.02;2.40;;;19.10;66.50;;;;;;10483538;28;20036;-61
2020/12/18 16:48:23;;;;;;;14.25;4.18;;;19.10;67.10;;;;;;10495021;28;20028;-60
2020/12/18 16:53:24;;;;;;;19.42;4.65;;;19.00;66.50;;;;;;10494493;28;20035;-63
2020/12/18 16:58:25;;;;;;;18.30;5.07;;;18.80;65.80;;;;;;10477452;28;20469;-61
2020/12/18 17:03:26;;;;;;;28.38;4.78;;;18.90;64.90;;;;;;10485989;28;20028;-61
2020/12/18 17:08:27;;;;;;;16.23;4.53;;;19.10;63.90;;;;;;10495900;28;20040;-56
2020/12/18 17:13:29;;;;;;;15.32;4.70;;;19.30;62.90;;;;;;10494076;28;20504;-57
2020/12/18 17:18:30;;;;;;;13.15;6.70;;;19.70;61.60;;;;;;10494101;28;20020;-56
2020/12/18 17:23:31;;;;;;;14.57;6.10;;;19.80;61.00;;;;;;10495097;28;20036;-59
2020/12/18 17:28:31;;;;;;;9.80;5.15;;;19.70;63.20;;;;;;10494818;28;20459;-59
2020/12/18 17:33:32;;;;;;;11.35;4.93;;;19.60;63.20;;;;;;10495906;28;20169;-60
2020/12/18 17:38:33;;;;;;;13.02;5.15;;;19.50;63.40;;;;;;10499127;28;20029;-59
2020/12/18 17:43:34;;;;;;;9.88;4.40;;;19.50;62.30;;;;;;10503671;28;20036;-59
2020/12/18 17:48:35;;;;;;;11.85;4.03;;;19.60;63.20;;;;;;10501991;28;20111;-61
2020/12/18 17:53:36;;;;;;;10.27;4.30;;;19.70;62.30;;;;;;10503425;28;20515;-60
2020/12/18 17:58:38;;;;;;;9.95;4.20;;;19.70;62.00;;;;;;10494632;28;20055;-60
2020/12/18 18:03:39;;;;;;;7.28;3.78;;;19.50;62.20;;;;;;10496198;28;20071;-60
2020/12/18 18:08:40;;;;;;;9.77;4.75;;;19.30;62.40;;;;;;10501105;28;20060;-60
2020/12/18 18:13:42;;;;;;;7.65;3.85;;;19.20;62.50;;;;;;10501478;28;20039;-60
2020/12/18 18:18:43;;;;;;;7.68;4.00;;;19.20;63.00;;;;;;10501582;28;20443;-60
2020/12/18 18:23:47;;;;;;;4.75;3.25;;;19.20;62.70;;;;;;10499334;28;20021;-60
2020/12/18 18:28:48;;;;;;;7.45;3.55;;;19.20;63.00;;;;;;10501065;28;20078;-61
2020/12/18 18:33:49;;;;;;;6.97;3.42;;;19.20;63.10;;;;;;10499450;28;20094;-59
2020/12/18 18:38:50;;;;;;;7.57;3.50;;;19.20;63.20;;;;;;10473017;28;20029;-59
2020/12/18 18:43:51;;;;;;;7.43;2.83;;;19.20;63.20;;;;;;10470388;28;20025;-58
2020/12/18 18:48:52;;;;;;;5.88;2.92;;;19.20;63.10;;;;;;10467694;28;20041;-59
2020/12/18 18:53:52;;;;;;;6.90;3.35;;;19.20;63.00;;;;;;10462079;28;20033;-59
2020/12/18 18:58:54;;;;;;;5.13;2.72;;;19.30;62.80;;;;;;10495772;28;20024;-59
2020/12/18 19:03:54;;;;;;;4.88;2.80;;;19.40;62.90;;;;;;10500121;28;20461;-59
2020/12/18 19:08:55;;;;;;;6.68;2.72;;;19.50;62.70;;;;;;10500202;28;20068;-59
2020/12/18 19:13:56;;;;;;;6.93;3.03;;;19.40;63.00;;;;;;10484303;28;20155;-58
2020/12/18 19:18:57;;;;;;;7.38;2.95;;;19.30;63.20;;;;;;10472887;28;20408;-58
2020/12/18 19:23:58;;;;;;;5.50;2.22;;;19.40;63.30;;;;;;10494642;28;20032;-57
2020/12/18 19:28:59;;;;;;;5.18;2.85;;;19.40;63.40;;;;;;10495842;28;20082;-59
2020/12/18 19:33:59;;;;;;;6.50;3.33;;;19.30;63.60;;;;;;10494835;28;20191;-58
2020/12/18 19:39:00;;;;;;;5.72;2.40;;;19.40;63.50;;;;;;10495672;28;20024;-57
2020/12/18 19:44:01;;;;;;;4.97;2.90;;;19.30;63.80;;;;;;10493533;28;20036;-59
2020/12/18 19:49:03;;;;;;;5.32;2.90;;;19.30;63.80;;;;;;10494689;28;20079;-58
2020/12/18 19:54:04;;;;;;;5.88;2.75;;;19.30;63.80;;;;;;10494665;28;20059;-59
2020/12/18 19:59:06;;;;;;;12.95;2.45;;;19.40;63.60;;;;;;10492013;28;20048;-59
2020/12/18 20:04:08;;;;;;;5.38;2.50;;;19.40;63.60;;;;;;10494143;28;20025;-59
2020/12/18 20:09:08;;;;;;;4.40;2.28;;;19.40;63.60;;;;;;10490510;28;20166;-59
2020/12/18 20:14:09;;;;;;;3.97;2.17;;;19.40;63.90;;;;;;10493588;28;20028;-59
2020/12/18 20:19:10;;;;;;;6.20;2.55;;;19.30;64.20;;;;;;10494301;28;20025;-58
2020/12/18 20:24:11;;;;;;;6.65;2.22;;;19.10;64.60;;;;;;10493932;28;20030;-58
2020/12/18 20:29:13;;;;;;;3.58;2.25;;;19.00;65.00;;;;;;10492822;28;20124;-58
2020/12/18 20:34:13;;;;;;;3.45;1.85;;;18.90;65.40;;;;;;10488761;28;20100;-59
2020/12/18 20:39:14;;;;;;;3.35;2.03;;;18.70;65.70;;;;;;10490321;28;20084;-60
2020/12/18 20:44:15;;;;;;;3.83;2.30;;;18.60;65.90;;;;;;10486408;28;20111;-59
2020/12/18 20:49:16;;;;;;;8.50;2.05;;;18.60;66.30;;;;;;10488817;28;20374;-58
2020/12/18 20:54:17;;;;;;;3.63;2.03;;;18.40;66.80;;;;;;10489214;28;20028;-58
2020/12/18 20:59:17;;;;;;;4.57;2.53;;;18.30;67.10;;;;;;10479384;28;20039;-58
2020/12/18 21:04:18;;;;;;;2.97;1.95;;;18.10;67.40;;;;;;10486359;28;20039;-59
2020/12/18 21:09:19;;;;;;;4.38;2.10;;;18.10;67.50;;;;;;10494613;28;20036;-59
2020/12/18 21:14:19;;;;;;;3.38;2.10;;;18.00;67.70;;;;;;10506086;28;20021;-59
2020/12/18 21:19:20;;;;;;;3.35;1.95;;;17.90;67.70;;;;;;10509979;28;20107;-59
2020/12/18 21:24:21;;;;;;;4.40;1.88;;;17.90;67.80;;;;;;10509955;28;20066;-59
2020/12/18 21:29:22;;;;;;;3.97;2.35;;;17.90;67.80;;;;;;10509820;28;20037;-60
2020/12/18 21:34:23;;;;;;;4.00;2.15;;;17.80;67.90;;;;;;10510121;28;20479;-60
2020/12/18 21:39:23;;;;;;;4.85;2.35;;;17.80;68.10;;;;;;10509802;28;20467;-59
2020/12/18 21:44:24;;;;;;;3.03;2.17;;;17.70;68.10;;;;;;10508126;28;20048;-59
2020/12/18 21:49:25;;;;;;;4.38;2.28;;;17.70;68.20;;;;;;10505264;28;20020;-59
2020/12/18 21:54:26;;;;;;;5.47;2.22;;;17.60;68.20;;;;;;10509248;28;20032;-59
2020/12/18 21:59:26;;;;;;;3.50;1.90;;;17.60;68.20;;;;;;10509058;28;20021;-58
2020/12/18 22:04:27;;;;;;;4.63;2.40;;;17.60;68.30;;;;;;10509175;28;20035;-59
2020/12/18 22:09:28;;;;;;;4.25;2.13;;;17.50;68.30;;;;;;10508963;28;20044;-59
2020/12/18 22:14:28;;;;;;;4.10;2.30;;;17.50;68.30;;;;;;10509294;28;20023;-59
2020/12/18 22:19:29;;;;;;;5.90;2.45;;;17.50;68.30;;;;;;10509150;28;20537;-59
2020/12/18 22:24:30;;;;;;;4.03;2.65;;;17.50;68.30;;;;;;10504958;28;20124;-59
2020/12/18 22:29:34;;;;;;;4.40;2.10;;;17.40;68.30;;;;;;10501905;28;20033;-59
2020/12/18 22:34:35;;;;;;;3.53;2.30;;;17.40;68.40;;;;;;10501935;28;20031;-59
2020/12/18 22:39:36;;;;;;;4.43;2.40;;;17.40;68.40;;;;;;10501788;28;20396;-59
2020/12/18 22:44:36;;;;;;;4.93;2.42;;;17.40;68.50;;;;;;10501630;28;20534;-59
2020/12/18 22:49:37;;;;;;;2.85;2.17;;;17.30;68.40;;;;;;10501696;28;20071;-59
2020/12/18 22:54:38;;;;;;;4.13;2.05;;;17.30;68.30;;;;;;10500194;28;20028;-59
2020/12/18 22:59:38;;;;;;;4.93;2.67;;;17.30;68.30;;;;;;10501109;28;20064;-59
2020/12/18 23:04:39;;;;;;;3.17;2.13;;;17.30;68.30;;;;;;10500290;28;20052;-59
2020/12/18 23:09:40;;;;;;;3.33;2.63;;;17.20;68.30;;;;;;10498982;28;20391;-59
2020/12/18 23:14:40;;;;;;;4.15;2.90;;;17.30;68.30;;;;;;10500807;28;20218;-59
2020/12/18 23:19:41;;;;;;;2.95;2.08;;;17.20;68.30;;;;;;10500467;28;20103;-60
2020/12/18 23:24:42;;;;;;;3.22;2.05;;;17.20;68.30;;;;;;10500168;28;20029;-59
2020/12/18 23:29:44;;;;;;;3.33;2.28;;;17.20;68.30;;;;;;10499691;28;20047;-59
2020/12/18 23:34:46;;;;;;;3.40;2.35;;;17.20;68.40;;;;;;10498667;28;20020;-60
2020/12/18 23:39:47;;;;;;;4.30;2.22;;;17.10;68.30;;;;;;10487798;28;20180;-60
2020/12/18 23:44:47;;;;;;;5.28;2.78;;;17.20;68.50;;;;;;10489672;28;20226;-60
2020/12/18 23:49:48;;;;;;;3.03;1.90;;;17.10;68.30;;;;;;10499096;28;20108;-60
2020/12/18 23:54:49;;;;;;;3.78;2.42;;;17.10;68.40;;;;;;10499030;28;20107;-60
2020/12/18 23:59:50;;;;;;;3.22;2.10;;;17.10;68.40;;;;;;10498565;28;20050;-60
